Time;durP1;ratioP1;P1;durP2;ratioP2;P2;SDS_P1;SDS_P2;PMS_P1;PMS_P2;Temp;Humidity;BMP_temperature;BMP_pressure;BME280_temperature;BME280_humidity;BME280_pressure;Samples;Min_cycle;Max_cycle;Signal;HPM_P1;HPM_P2
2024/03/19 00:01:41;;;;;;;49.55;30.65;;;12.20;99.90;;;;;;5026937;28;20081;-73
2024/03/19 00:04:07;;;;;;;46.92;27.95;;;12.20;99.90;;;;;;5027449;28;20029;-74
2024/03/19 00:06:33;;;;;;;44.90;29.42;;;12.20;99.90;;;;;;5027341;28;20022;-73
2024/03/19 00:08:59;;;;;;;43.53;26.98;;;12.10;99.90;;;;;;5027291;28;20063;-73
2024/03/19 00:11:24;;;;;;;48.53;27.48;;;12.10;99.90;;;;;;5027378;28;20520;-73
2024/03/19 00:13:50;;;;;;;41.70;26.05;;;12.00;99.90;;;;;;5026499;28;20021;-74
2024/03/19 00:16:16;;;;;;;43.63;25.10;;;12.00;99.90;;;;;;5027012;28;20025;-75
2024/03/19 00:18:45;;;;;;;46.50;27.00;;;12.00;99.90;;;;;;5027371;28;20566;-73
2024/03/19 00:21:10;;;;;;;44.05;25.70;;;12.00;99.90;;;;;;5026422;28;20017;-73
2024/03/19 00:23:37;;;;;;;39.70;24.35;;;12.00;99.90;;;;;;5025827;28;20029;-73
2024/03/19 00:26:05;;;;;;;36.33;22.70;;;11.90;99.90;;;;;;5026679;28;20010;-74
2024/03/19 00:28:31;;;;;;;36.47;23.52;;;11.90;99.90;;;;;;5026765;28;20032;-74
2024/03/19 00:30:59;;;;;;;35.47;22.67;;;11.90;99.90;;;;;;5026674;28;20034;-73
2024/03/19 00:33:26;;;;;;;47.70;26.73;;;11.90;99.90;;;;;;5026487;28;20377;-73
2024/03/19 00:35:52;;;;;;;44.28;26.45;;;11.90;99.90;;;;;;5025055;28;20135;-73
2024/03/19 00:38:19;;;;;;;41.65;26.60;;;12.00;99.90;;;;;;5026813;28;20565;-73
2024/03/19 00:40:45;;;;;;;46.05;27.65;;;12.00;99.90;;;;;;5026979;28;20433;-73
2024/03/19 00:43:11;;;;;;;44.90;28.27;;;12.00;99.90;;;;;;5026518;28;20049;-73
2024/03/19 00:45:37;;;;;;;45.58;25.70;;;12.00;99.90;;;;;;5026012;28;20029;-74
2024/03/19 00:48:04;;;;;;;41.15;25.77;;;12.00;99.90;;;;;;5026331;28;20100;-73
2024/03/19 00:50:31;;;;;;;44.33;28.50;;;11.90;99.90;;;;;;5026026;28;20505;-74
2024/03/19 00:52:57;;;;;;;43.92;24.92;;;11.90;99.90;;;;;;5025410;28;20041;-73
2024/03/19 00:55:23;;;;;;;46.28;26.80;;;12.00;99.90;;;;;;5025765;28;20029;-73
2024/03/19 00:57:49;;;;;;;46.67;24.92;;;11.90;99.90;;;;;;5026214;28;20584;-73
2024/03/19 01:00:14;;;;;;;41.45;25.95;;;12.00;99.90;;;;;;5025218;28;20127;-73
2024/03/19 01:02:41;;;;;;;42.22;24.38;;;12.00;99.90;;;;;;5024809;28;20021;-73
2024/03/19 01:05:11;;;;;;;38.38;25.55;;;12.00;99.90;;;;;;5024539;28;20057;-74
2024/03/19 01:07:41;;;;;;;38.30;25.15;;;12.00;99.90;;;;;;5025168;28;20095;-73
2024/03/19 01:10:08;;;;;;;42.88;25.60;;;12.10;99.90;;;;;;5026143;28;20045;-74
2024/03/19 01:12:35;;;;;;;39.33;25.73;;;12.10;99.90;;;;;;5024115;28;20017;-76
2024/03/19 01:15:01;;;;;;;40.58;24.25;;;12.10;99.90;;;;;;5024202;28;20474;-75
2024/03/19 01:17:27;;;;;;;44.25;27.00;;;12.10;99.90;;;;;;5025595;28;20029;-76
2024/03/19 01:19:53;;;;;;;39.90;24.65;;;12.00;99.90;;;;;;5025558;28;20030;-73
2024/03/19 01:22:18;;;;;;;42.95;25.60;;;12.00;99.90;;;;;;5025109;28;20025;-74
2024/03/19 01:24:45;;;;;;;36.58;25.45;;;12.00;99.90;;;;;;5026048;28;20033;-74
2024/03/19 01:27:11;;;;;;;43.22;26.63;;;12.00;99.90;;;;;;5025981;28;20038;-75
2024/03/19 01:29:37;;;;;;;40.95;24.45;;;12.10;99.90;;;;;;5025182;28;20390;-75
2024/03/19 01:32:06;;;;;;;40.10;25.80;;;12.10;99.90;;;;;;5025739;28;20105;-73
2024/03/19 01:34:32;;;;;;;41.45;26.42;;;12.00;99.90;;;;;;5024994;28;20049;-73
2024/03/19 01:36:57;;;;;;;39.80;26.25;;;12.10;99.90;;;;;;5025106;28;20115;-74
2024/03/19 01:39:23;;;;;;;40.17;26.67;;;12.10;99.90;;;;;;5024889;28;20493;-76
2024/03/19 01:41:54;;;;;;;45.35;26.45;;;12.10;99.90;;;;;;5025465;28;20033;-75
2024/03/19 01:44:21;;;;;;;47.05;27.27;;;12.10;99.90;;;;;;5025060;28;20037;-73
2024/03/19 01:46:47;;;;;;;44.03;28.98;;;12.10;99.90;;;;;;5025073;28;20021;-74
2024/03/19 01:49:15;;;;;;;43.28;26.95;;;12.10;99.90;;;;;;5024276;28;20052;-74
2024/03/19 01:51:42;;;;;;;43.53;27.23;;;12.00;99.90;;;;;;5023493;28;20018;-74
2024/03/19 01:54:09;;;;;;;43.55;27.02;;;12.00;99.90;;;;;;5025234;28;20119;-74
2024/03/19 01:56:35;;;;;;;40.28;25.23;;;12.00;99.90;;;;;;5025262;28;20030;-74
2024/03/19 01:59:01;;;;;;;48.70;27.92;;;12.00;99.90;;;;;;5024090;28;20466;-73
2024/03/19 02:01:27;;;;;;;49.22;28.40;;;12.00;99.90;;;;;;5024544;28;20029;-75
2024/03/19 02:03:53;;;;;;;49.28;26.88;;;12.00;99.90;;;;;;5024052;28;20029;-74
2024/03/19 02:06:20;;;;;;;50.20;26.80;;;12.00;99.90;;;;;;5024773;28;20045;-73
2024/03/19 02:08:58;;;;;;;50.97;27.17;;;12.00;99.90;;;;;;5024787;28;20479;-73
2024/03/19 02:11:24;;;;;;;44.55;26.42;;;12.10;99.90;;;;;;5024983;28;20053;-73
2024/03/19 02:13:50;;;;;;;46.45;27.80;;;12.00;99.90;;;;;;5025008;28;20049;-74
2024/03/19 02:16:16;;;;;;;56.65;28.33;;;12.00;99.90;;;;;;5025070;28;20057;-75
2024/03/19 02:18:44;;;;;;;48.90;26.98;;;12.00;99.90;;;;;;5025921;28;20463;-73
2024/03/19 02:21:10;;;;;;;44.58;25.88;;;12.10;99.90;;;;;;5028720;28;20026;-74
2024/03/19 02:23:36;;;;;;;48.65;27.48;;;12.20;99.90;;;;;;5027835;28;20071;-73
2024/03/19 02:26:02;;;;;;;51.30;26.02;;;12.20;99.90;;;;;;5027892;28;20037;-73
2024/03/19 02:28:28;;;;;;;47.15;26.50;;;12.20;99.90;;;;;;5029433;28;20080;-74
2024/03/19 02:30:56;;;;;;;46.28;27.40;;;12.20;99.90;;;;;;5028229;28;20034;-73
2024/03/19 02:33:22;;;;;;;47.63;25.65;;;12.20;99.90;;;;;;5028199;28;20025;-73
2024/03/19 02:35:48;;;;;;;45.95;26.85;;;12.20;99.90;;;;;;5027651;28;20040;-72
2024/03/19 02:38:13;;;;;;;45.38;24.98;;;12.20;99.90;;;;;;5028826;28;20022;-73
2024/03/19 02:40:42;;;;;;;46.33;25.38;;;12.20;99.90;;;;;;5028845;28;20101;-73
2024/03/19 02:43:08;;;;;;;42.28;24.17;;;12.30;99.90;;;;;;5028454;28;20049;-73
2024/03/19 02:45:34;;;;;;;42.22;24.67;;;12.30;99.90;;;;;;5027075;28;20077;-73
2024/03/19 02:47:59;;;;;;;42.30;24.23;;;12.40;99.90;;;;;;5029298;28;20029;-73
2024/03/19 02:50:25;;;;;;;37.38;23.70;;;12.40;99.90;;;;;;5029724;28;20052;-73
2024/03/19 02:52:51;;;;;;;41.10;22.98;;;12.30;99.90;;;;;;5042560;28;20429;-72
2024/03/19 02:55:16;;;;;;;42.47;23.20;;;12.40;99.90;;;;;;5034771;28;20478;-71
2024/03/19 02:57:44;;;;;;;35.92;22.25;;;12.30;99.90;;;;;;5028892;28;20034;-72
2024/03/19 03:00:10;;;;;;;40.25;23.08;;;12.30;99.90;;;;;;5031122;28;20033;-75
2024/03/19 03:02:37;;;;;;;41.25;22.15;;;12.30;99.90;;;;;;5024940;28;20422;-76
2024/03/19 03:05:03;;;;;;;36.90;20.10;;;12.30;99.90;;;;;;5033125;28;20021;-75
2024/03/19 03:07:29;;;;;;;40.67;20.95;;;12.30;99.90;;;;;;5029101;28;20025;-73
2024/03/19 03:09:55;;;;;;;35.17;20.73;;;12.40;99.90;;;;;;5031314;28;20041;-74
2024/03/19 03:12:20;;;;;;;35.50;21.13;;;12.40;99.90;;;;;;5033157;28;20382;-75
2024/03/19 03:14:46;;;;;;;39.13;21.15;;;12.40;99.90;;;;;;5030915;28;20151;-76
2024/03/19 03:17:12;;;;;;;37.45;20.58;;;12.40;99.90;;;;;;5023160;28;20096;-74
2024/03/19 03:19:37;;;;;;;38.78;22.33;;;12.40;99.90;;;;;;5034070;28;20431;-73
2024/03/19 03:22:03;;;;;;;41.35;26.52;;;12.40;99.90;;;;;;5032964;28;20378;-76
2024/03/19 03:24:30;;;;;;;38.40;23.40;;;12.40;99.90;;;;;;5032354;28;20045;-76
2024/03/19 03:26:56;;;;;;;54.65;27.15;;;12.40;99.90;;;;;;5026258;28;20101;-76
2024/03/19 03:29:22;;;;;;;43.80;26.52;;;12.40;99.90;;;;;;5019832;28;20045;-74
2024/03/19 03:31:48;;;;;;;40.15;24.02;;;12.40;99.90;;;;;;5030208;28;20033;-73
2024/03/19 03:34:14;;;;;;;39.47;24.25;;;12.30;99.90;;;;;;5030392;28;20033;-75
2024/03/19 03:36:39;;;;;;;35.63;21.95;;;12.30;99.90;;;;;;5027479;28;20018;-75
2024/03/19 03:39:07;;;;;;;36.97;22.08;;;12.30;99.90;;;;;;5027566;28;20390;-73
2024/03/19 03:41:33;;;;;;;33.08;20.13;;;12.30;99.90;;;;;;5038634;28;20428;-74
2024/03/19 03:43:58;;;;;;;32.63;18.67;;;12.40;99.90;;;;;;5037421;28;20067;-74
2024/03/19 03:46:24;;;;;;;31.65;18.23;;;12.40;99.90;;;;;;5033630;28;20033;-72
2024/03/19 03:48:50;;;;;;;33.55;17.02;;;12.40;99.90;;;;;;5032005;28;20041;-75
2024/03/19 03:51:15;;;;;;;26.40;16.85;;;12.40;99.90;;;;;;5033385;28;20087;-73
2024/03/19 03:53:41;;;;;;;30.90;18.00;;;12.40;99.90;;;;;;5033118;28;20505;-75
2024/03/19 03:56:07;;;;;;;38.75;21.08;;;12.40;99.90;;;;;;5033304;28;20069;-75
2024/03/19 03:58:32;;;;;;;37.28;19.75;;;12.40;99.90;;;;;;5031430;28;20484;-76
2024/03/19 04:00:58;;;;;;;33.90;20.10;;;12.40;99.90;;;;;;5025279;28;20021;-73
2024/03/19 04:03:24;;;;;;;29.95;18.02;;;12.40;99.90;;;;;;5022727;28;20418;-72
2024/03/19 04:05:49;;;;;;;27.65;17.67;;;12.40;99.90;;;;;;5030406;28;20076;-75
2024/03/19 04:08:15;;;;;;;30.10;15.57;;;12.40;99.90;;;;;;5027063;28;20017;-75
2024/03/19 04:10:41;;;;;;;31.35;17.13;;;12.40;99.90;;;;;;5020377;28;20478;-75
2024/03/19 04:13:06;;;;;;;26.25;15.00;;;12.40;99.90;;;;;;5032634;28;20052;-74
2024/03/19 04:15:32;;;;;;;31.17;15.73;;;12.50;99.90;;;;;;5019660;28;20560;-74
2024/03/19 04:17:57;;;;;;;28.00;15.18;;;12.50;99.90;;;;;;5025373;28;20598;-75
2024/03/19 04:20:23;;;;;;;29.77;16.20;;;12.50;99.90;;;;;;5025100;28;20022;-76
2024/03/19 04:22:49;;;;;;;31.38;17.67;;;12.50;99.90;;;;;;5028549;28;20728;-76
2024/03/19 04:25:15;;;;;;;28.88;17.23;;;12.50;99.90;;;;;;5024161;28;20382;-73
2024/03/19 04:27:41;;;;;;;28.35;17.13;;;12.50;99.90;;;;;;5023455;28;20096;-72
2024/03/19 04:30:07;;;;;;;28.95;20.10;;;12.50;99.90;;;;;;5031036;28;20117;-72
2024/03/19 04:32:32;;;;;;;38.08;21.15;;;12.50;99.90;;;;;;5026639;28;20021;-76
2024/03/19 04:34:58;;;;;;;30.92;19.15;;;12.50;99.90;;;;;;5025909;28;20032;-76
2024/03/19 04:37:24;;;;;;;31.35;17.60;;;12.50;99.90;;;;;;5045032;28;20132;-76
2024/03/19 04:39:50;;;;;;;26.13;16.63;;;12.50;99.90;;;;;;5033464;28;20377;-74
2024/03/19 04:42:19;;;;;;;30.48;17.02;;;12.50;99.90;;;;;;5025702;28;20026;-72
2024/03/19 04:44:46;;;;;;;27.27;14.80;;;12.50;99.90;;;;;;5030275;28;20025;-73
2024/03/19 04:47:12;;;;;;;31.20;16.50;;;12.50;99.90;;;;;;5032513;28;20030;-75
2024/03/19 04:49:38;;;;;;;21.42;13.90;;;12.50;99.90;;;;;;5024684;28;20042;-76
2024/03/19 04:52:04;;;;;;;26.58;14.18;;;12.50;99.90;;;;;;5035705;28;20025;-73
2024/03/19 04:54:30;;;;;;;23.73;13.48;;;12.50;99.90;;;;;;5028645;28;20405;-73
2024/03/19 04:56:55;;;;;;;25.10;15.02;;;12.50;99.90;;;;;;5025543;28;20014;-76
2024/03/19 04:59:21;;;;;;;27.83;16.48;;;12.50;99.90;;;;;;5021134;28;20041;-74
2024/03/19 05:01:47;;;;;;;29.75;14.82;;;12.50;99.90;;;;;;5018355;28;20026;-75
2024/03/19 05:04:13;;;;;;;26.17;14.35;;;12.50;99.90;;;;;;5025077;28;20390;-73
2024/03/19 05:06:38;;;;;;;24.15;14.23;;;12.50;99.90;;;;;;5029529;28;20488;-74
2024/03/19 05:09:06;;;;;;;24.83;14.35;;;12.50;99.90;;;;;;5028840;28;20029;-73
2024/03/19 05:11:32;;;;;;;24.45;13.88;;;12.50;99.90;;;;;;5025941;28;20021;-75
2024/03/19 05:13:58;;;;;;;26.15;14.32;;;12.50;99.90;;;;;;5028767;28;20450;-73
2024/03/19 05:16:23;;;;;;;24.20;13.40;;;12.50;99.90;;;;;;5028804;28;20116;-76
2024/03/19 05:18:49;;;;;;;23.10;13.25;;;12.50;99.90;;;;;;5030925;28;20501;-73
2024/03/19 05:21:15;;;;;;;24.15;14.35;;;12.40;99.90;;;;;;5029749;28;20522;-73
2024/03/19 05:23:42;;;;;;;26.15;15.70;;;12.40;99.90;;;;;;5024735;28;20108;-72
2024/03/19 05:26:08;;;;;;;27.95;16.05;;;12.40;99.90;;;;;;5039273;28;20010;-73
2024/03/19 05:28:34;;;;;;;24.45;15.52;;;12.50;99.90;;;;;;5027802;28;20086;-73
2024/03/19 05:30:59;;;;;;;27.25;15.43;;;12.40;99.90;;;;;;5032419;28;20021;-74
2024/03/19 05:33:25;;;;;;;21.67;14.63;;;12.40;99.90;;;;;;5032503;28;20072;-72
2024/03/19 05:35:51;;;;;;;29.95;18.23;;;12.40;99.90;;;;;;5030793;28;20025;-73
2024/03/19 05:38:17;;;;;;;32.05;20.25;;;12.40;99.90;;;;;;5032192;28;20137;-73
2024/03/19 05:40:43;;;;;;;35.50;20.30;;;12.40;99.90;;;;;;5030495;28;20024;-74
2024/03/19 05:43:09;;;;;;;24.52;16.98;;;12.40;99.90;;;;;;5032585;28;20013;-73
2024/03/19 05:45:35;;;;;;;22.92;13.60;;;12.40;99.90;;;;;;5032121;28;20029;-75
2024/03/19 05:48:02;;;;;;;23.25;14.75;;;12.30;99.90;;;;;;5031724;28;20096;-73
2024/03/19 05:50:32;;;;;;;24.52;14.88;;;12.30;99.90;;;;;;5030124;28;20385;-72
2024/03/19 05:53:01;;;;;;;20.70;12.82;;;12.30;99.90;;;;;;5042648;28;20029;-73
2024/03/19 05:55:27;;;;;;;26.98;14.05;;;12.40;99.90;;;;;;5029519;28;20030;-72
2024/03/19 05:57:53;;;;;;;22.45;12.02;;;12.40;99.90;;;;;;5031288;28;20018;-72
2024/03/19 06:00:21;;;;;;;18.85;11.70;;;12.40;99.90;;;;;;5017759;28;20032;-74
2024/03/19 06:02:49;;;;;;;22.95;12.07;;;12.40;99.90;;;;;;5031272;28;20013;-73
2024/03/19 06:05:14;;;;;;;19.00;11.23;;;12.30;99.90;;;;;;5026019;28;20117;-73
2024/03/19 06:07:40;;;;;;;21.52;11.85;;;12.40;99.90;;;;;;5024512;28;20450;-71
2024/03/19 06:10:08;;;;;;;21.58;12.02;;;12.40;99.90;;;;;;5032115;28;20371;-72
2024/03/19 06:12:34;;;;;;;17.98;10.20;;;12.40;99.90;;;;;;5032035;28;20153;-72
2024/03/19 06:15:00;;;;;;;17.20;11.10;;;12.40;99.90;;;;;;5028177;28;20764;-72
2024/03/19 06:17:26;;;;;;;17.80;10.80;;;12.50;99.90;;;;;;5023439;28;20364;-72
2024/03/19 06:19:52;;;;;;;17.00;11.63;;;12.50;99.90;;;;;;5030391;28;20087;-72
2024/03/19 06:22:17;;;;;;;20.92;12.13;;;12.40;99.90;;;;;;5030438;28;20021;-72
2024/03/19 06:24:43;;;;;;;19.13;11.60;;;12.40;99.90;;;;;;5031840;28;20025;-72
2024/03/19 06:27:09;;;;;;;21.85;11.27;;;12.50;99.90;;;;;;5031805;28;20037;-74
2024/03/19 06:29:35;;;;;;;20.38;11.38;;;12.40;99.90;;;;;;5031537;28;20478;-74
2024/03/19 06:32:00;;;;;;;19.80;10.63;;;12.40;99.90;;;;;;5031923;28;20398;-72
2024/03/19 06:34:26;;;;;;;19.40;11.35;;;12.50;99.90;;;;;;5031678;28;20057;-74
2024/03/19 06:36:53;;;;;;;16.55;10.13;;;12.50;99.90;;;;;;5031379;28;20099;-74
2024/03/19 06:39:19;;;;;;;21.27;10.75;;;12.50;99.90;;;;;;5028281;28;20025;-74
2024/03/19 06:41:45;;;;;;;18.95;9.48;;;12.50;99.90;;;;;;5029971;28;20026;-74
2024/03/19 06:44:11;;;;;;;20.60;9.85;;;12.50;99.90;;;;;;5031237;28;20474;-74
2024/03/19 06:46:36;;;;;;;15.68;9.00;;;12.50;99.90;;;;;;5031138;28;20037;-74
2024/03/19 06:49:04;;;;;;;18.92;10.07;;;12.50;99.90;;;;;;5031805;28;20078;-74
2024/03/19 06:51:30;;;;;;;18.25;8.85;;;12.50;99.90;;;;;;5032731;28;20033;-73
2024/03/19 06:53:55;;;;;;;18.45;8.00;;;12.50;99.90;;;;;;5031459;28;20026;-80
2024/03/19 06:56:21;;;;;;;15.40;8.43;;;12.50;99.90;;;;;;5031188;28;20453;-74
2024/03/19 06:58:47;;;;;;;17.45;9.02;;;12.50;99.90;;;;;;5026582;28;20030;-73
2024/03/19 07:01:13;;;;;;;15.68;9.00;;;12.50;99.90;;;;;;5028691;28;20100;-73
2024/03/19 07:03:39;;;;;;;18.58;8.65;;;12.60;99.90;;;;;;5030033;28;20018;-72
2024/03/19 07:06:05;;;;;;;17.70;9.23;;;12.60;99.90;;;;;;5034037;28;20378;-72
2024/03/19 07:08:31;;;;;;;18.25;8.52;;;12.50;99.90;;;;;;5025833;28;20018;-73
2024/03/19 07:10:59;;;;;;;17.90;8.40;;;12.40;99.90;;;;;;5032982;28;20068;-73
2024/03/19 07:13:25;;;;;;;16.02;8.32;;;12.40;99.90;;;;;;5034476;28;20096;-73
2024/03/19 07:15:51;;;;;;;16.50;8.45;;;12.40;99.90;;;;;;5033382;28;20109;-72
2024/03/19 07:18:20;;;;;;;19.83;8.27;;;12.40;99.90;;;;;;5031664;28;20026;-74
2024/03/19 07:20:46;;;;;;;17.63;8.45;;;12.40;99.90;;;;;;5029248;28;20029;-73
2024/03/19 07:23:12;;;;;;;17.67;8.30;;;12.40;99.90;;;;;;5030876;28;20022;-73
2024/03/19 07:25:38;;;;;;;18.63;8.15;;;12.40;99.90;;;;;;5029555;28;20364;-73
2024/03/19 07:28:04;;;;;;;19.73;8.63;;;12.40;99.90;;;;;;5033757;28;20021;-73
2024/03/19 07:30:29;;;;;;;19.27;7.88;;;12.40;99.90;;;;;;5030966;28;20046;-72
2024/03/19 07:32:55;;;;;;;22.30;8.63;;;12.40;99.90;;;;;;5026351;28;20033;-73
2024/03/19 07:35:22;;;;;;;20.85;8.52;;;12.50;99.90;;;;;;5028783;28;20022;-73
2024/03/19 07:37:49;;;;;;;17.65;8.30;;;12.50;99.90;;;;;;5033385;28;20021;-73
2024/03/19 07:40:18;;;;;;;15.45;8.40;;;12.50;99.90;;;;;;5033046;28;20093;-72
2024/03/19 07:42:43;;;;;;;21.98;8.68;;;12.50;99.90;;;;;;5034564;28;20022;-73
2024/03/19 07:45:09;;;;;;;19.08;8.70;;;12.50;99.90;;;;;;5033262;28;20037;-73
2024/03/19 07:47:35;;;;;;;17.60;7.30;;;12.50;99.90;;;;;;5033882;28;20433;-73
2024/03/19 07:50:07;;;;;;;15.25;8.30;;;12.60;99.90;;;;;;5032841;28;20068;-73
2024/03/19 07:52:34;;;;;;;19.50;7.85;;;12.60;99.90;;;;;;5037307;28;20027;-73
2024/03/19 07:55:00;;;;;;;18.45;7.22;;;12.70;99.90;;;;;;5034261;28;20021;-72
2024/03/19 07:57:27;;;;;;;17.20;7.90;;;12.80;99.90;;;;;;5034226;28;20072;-72
2024/03/19 07:59:53;;;;;;;20.98;7.65;;;12.90;99.90;;;;;;5034387;28;20020;-73
2024/03/19 08:02:20;;;;;;;17.13;8.60;;;13.00;99.90;;;;;;5034341;28;20021;-73
2024/03/19 08:04:52;;;;;;;20.73;9.05;;;12.90;99.90;;;;;;5033712;28;20027;-74
2024/03/19 08:07:18;;;;;;;19.67;8.57;;;13.00;99.90;;;;;;5034316;28;20017;-73
2024/03/19 08:09:45;;;;;;;22.38;8.98;;;13.00;99.90;;;;;;5033915;28;20079;-73
2024/03/19 08:12:11;;;;;;;22.70;8.30;;;13.00;99.90;;;;;;5032676;28;20108;-73
2024/03/19 08:14:37;;;;;;;18.50;7.95;;;13.10;99.90;;;;;;5033019;28;20104;-73
2024/03/19 08:17:03;;;;;;;22.38;8.55;;;13.10;99.90;;;;;;5032885;28;20045;-73
2024/03/19 08:19:29;;;;;;;17.45;8.93;;;13.20;99.90;;;;;;5020183;28;20026;-73
2024/03/19 08:21:55;;;;;;;15.70;7.38;;;13.30;99.90;;;;;;5033395;28;20023;-73
2024/03/19 08:24:21;;;;;;;19.92;8.52;;;13.30;99.90;;;;;;5033920;28;20101;-74
2024/03/19 08:26:46;;;;;;;19.23;7.90;;;13.40;99.90;;;;;;5033581;28;20470;-72
2024/03/19 08:29:13;;;;;;;20.35;8.13;;;13.50;99.90;;;;;;5032458;28;20033;-73
2024/03/19 08:31:39;;;;;;;21.30;7.10;;;13.50;99.90;;;;;;5023169;28;20026;-72
2024/03/19 08:34:05;;;;;;;15.57;6.72;;;13.70;99.90;;;;;;5030826;28;20021;-73
2024/03/19 08:36:32;;;;;;;17.48;7.15;;;13.80;99.90;;;;;;5032289;28;20036;-73
2024/03/19 08:38:58;;;;;;;18.10;7.68;;;13.90;99.90;;;;;;5033192;28;20104;-73
2024/03/19 08:41:24;;;;;;;17.23;7.68;;;13.90;99.90;;;;;;5033311;28;20026;-73
2024/03/19 08:43:51;;;;;;;13.52;7.07;;;13.80;99.90;;;;;;5033148;28;20029;-72
2024/03/19 08:46:20;;;;;;;15.25;6.47;;;13.80;99.90;;;;;;5033000;28;20018;-73
2024/03/19 08:48:46;;;;;;;16.20;7.30;;;13.80;99.90;;;;;;5032365;28;20025;-72
2024/03/19 08:51:12;;;;;;;17.67;6.38;;;14.00;99.90;;;;;;5036108;28;20115;-72
2024/03/19 08:53:38;;;;;;;11.13;5.95;;;13.90;99.90;;;;;;5035389;28;20021;-73
2024/03/19 08:56:05;;;;;;;18.67;7.00;;;13.90;99.90;;;;;;5033240;28;20025;-72
2024/03/19 08:58:31;;;;;;;13.32;5.65;;;13.90;99.90;;;;;;5032874;28;20014;-73
2024/03/19 09:00:57;;;;;;;14.55;6.30;;;14.00;99.90;;;;;;5033110;28;20021;-74
2024/03/19 09:03:23;;;;;;;11.20;5.70;;;14.10;99.90;;;;;;5032691;28;20098;-73
2024/03/19 09:06:00;;;;;;;13.90;5.28;;;14.20;99.90;;;;;;5033422;28;20347;-73
2024/03/19 09:08:26;;;;;;;11.20;5.07;;;14.30;99.90;;;;;;5033003;28;20093;-73
2024/03/19 09:10:53;;;;;;;13.50;4.95;;;14.20;99.90;;;;;;5031777;28;20033;-73
2024/03/19 09:13:20;;;;;;;15.13;4.78;;;14.30;99.90;;;;;;5032889;28;20048;-73
2024/03/19 09:15:46;;;;;;;14.98;4.57;;;14.40;99.90;;;;;;5031733;28;20030;-74
2024/03/19 09:18:16;;;;;;;13.18;5.93;;;14.40;99.90;;;;;;5030429;28;20064;-73
2024/03/19 09:20:42;;;;;;;15.55;5.65;;;14.50;99.90;;;;;;5032872;28;20053;-74
2024/03/19 09:23:08;;;;;;;17.85;4.72;;;14.60;99.90;;;;;;5032439;28;20029;-73
2024/03/19 09:25:34;;;;;;;18.25;4.65;;;14.80;99.90;;;;;;5032477;28;20382;-73
2024/03/19 09:28:01;;;;;;;11.95;4.75;;;14.90;99.90;;;;;;5031282;28;20029;-73
2024/03/19 09:30:26;;;;;;;18.42;5.30;;;15.00;99.90;;;;;;5032147;28;20610;-74
2024/03/19 09:32:53;;;;;;;11.50;5.22;;;15.20;99.90;;;;;;5032663;28;20100;-73
2024/03/19 09:35:19;;;;;;;13.38;5.20;;;15.40;99.90;;;;;;5032059;28;20113;-74
2024/03/19 09:37:45;;;;;;;12.30;4.72;;;15.40;99.90;;;;;;5032054;28;20037;-73
2024/03/19 09:40:11;;;;;;;15.40;4.97;;;15.50;99.90;;;;;;5032231;28;20032;-73
2024/03/19 09:42:38;;;;;;;10.43;5.15;;;15.60;99.90;;;;;;5031615;28;20052;-72
2024/03/19 09:45:15;;;;;;;11.90;4.63;;;15.70;99.90;;;;;;5031447;28;20021;-73
2024/03/19 09:47:41;;;;;;;17.83;4.97;;;15.70;99.90;;;;;;5008168;28;20095;-74
2024/03/19 09:50:15;;;;;;;10.50;4.80;;;15.70;99.90;;;;;;5023541;28;20128;-74
2024/03/19 09:52:42;;;;;;;11.88;4.43;;;15.90;99.90;;;;;;5025179;28;20065;-74
2024/03/19 09:55:15;;;;;;;10.45;4.05;;;16.10;99.90;;;;;;5025850;28;20530;-74
2024/03/19 09:57:46;;;;;;;8.23;4.28;;;16.20;99.90;;;;;;5022875;28;20036;-75
2024/03/19 10:00:30;;;;;;;11.48;3.03;;;16.40;99.90;;;;;;5023879;28;20033;-74
2024/03/19 10:02:55;;;;;;;12.07;3.13;;;16.70;99.90;;;;;;5025028;28;20064;-74
2024/03/19 10:05:22;;;;;;;8.20;2.83;;;16.90;99.90;;;;;;5024946;28;20065;-75
2024/03/19 10:07:51;;;;;;;9.32;3.20;;;17.00;99.90;;;;;;5025109;28;20048;-75
2024/03/19 10:10:18;;;;;;;8.73;2.75;;;16.90;99.90;;;;;;5025699;28;20038;-74
2024/03/19 10:12:44;;;;;;;4.53;2.05;;;17.00;99.90;;;;;;5025644;28;20581;-74
2024/03/19 10:15:21;;;;;;;6.78;2.65;;;16.90;99.90;;;;;;5023563;28;20287;-75
2024/03/19 10:17:48;;;;;;;4.45;2.10;;;17.00;99.90;;;;;;5023398;28;20033;-74
2024/03/19 10:20:15;;;;;;;8.88;2.85;;;17.20;99.90;;;;;;5025646;28;20041;-74
2024/03/19 10:22:43;;;;;;;11.30;2.70;;;17.30;99.90;;;;;;5023754;28;20365;-74
2024/03/19 10:25:12;;;;;;;5.72;2.83;;;17.50;99.90;;;;;;5024192;28;20092;-75
2024/03/19 10:27:44;;;;;;;8.40;2.20;;;17.70;99.90;;;;;;5024010;28;20025;-75
2024/03/19 10:30:14;;;;;;;9.60;2.33;;;17.80;99.90;;;;;;5024172;28;20037;-74
2024/03/19 10:32:41;;;;;;;6.72;2.22;;;17.90;99.90;;;;;;5025401;28;20057;-75
2024/03/19 10:35:26;;;;;;;5.53;1.90;;;17.90;99.90;;;;;;5025207;28;20030;-75
2024/03/19 10:37:53;;;;;;;6.63;2.30;;;17.80;99.90;;;;;;5024519;28;20021;-75
2024/03/19 10:40:21;;;;;;;9.15;1.98;;;17.80;99.90;;;;;;5027343;28;20167;-75
2024/03/19 10:42:48;;;;;;;7.15;2.40;;;17.80;99.90;;;;;;5028149;28;20414;-75
2024/03/19 10:45:21;;;;;;;6.82;2.05;;;18.10;99.90;;;;;;5028315;28;20117;-75
2024/03/19 10:47:48;;;;;;;9.82;2.70;;;18.10;99.90;;;;;;5027964;28;20041;-75
2024/03/19 10:50:16;;;;;;;7.90;2.35;;;18.00;99.90;;;;;;5029263;28;20405;-75
2024/03/19 10:52:47;;;;;;;6.43;2.20;;;18.10;99.90;;;;;;5027504;28;20083;-76
2024/03/19 10:55:15;;;;;;;6.97;2.42;;;18.10;99.90;;;;;;5029359;28;20029;-75
2024/03/19 10:57:41;;;;;;;6.28;2.70;;;18.20;99.90;;;;;;5026419;28;20021;-75
2024/03/19 11:00:20;;;;;;;6.20;2.25;;;18.30;99.90;;;;;;5029239;28;20025;-75
2024/03/19 11:02:49;;;;;;;8.70;2.50;;;18.30;99.90;;;;;;5027210;28;20025;-76
2024/03/19 11:05:20;;;;;;;7.18;2.53;;;18.30;99.90;;;;;;5028001;28;20022;-75
2024/03/19 11:07:48;;;;;;;5.30;2.00;;;18.40;99.90;;;;;;5027027;28;20470;-75
2024/03/19 11:10:35;;;;;;;6.32;2.33;;;18.70;99.90;;;;;;5026831;28;20121;-76
2024/03/19 11:13:22;;;;;;;6.25;2.30;;;18.30;99.90;;;;;;5027638;28;20462;-76
2024/03/19 11:15:49;;;;;;;8.90;2.45;;;18.40;99.90;;;;;;5028337;28;20028;-75
2024/03/19 11:18:15;;;;;;;8.18;2.88;;;18.60;99.90;;;;;;5026258;28;20068;-75
2024/03/19 11:20:44;;;;;;;6.25;2.38;;;18.70;99.90;;;;;;5027685;28;20060;-76
2024/03/19 11:23:15;;;;;;;7.22;2.55;;;18.90;99.90;;;;;;5026505;28;20065;-75
2024/03/19 11:25:44;;;;;;;7.88;1.88;;;19.20;99.90;;;;;;5028450;28;21529;-75
2024/03/19 11:28:27;;;;;;;5.50;2.50;;;18.80;99.90;;;;;;5027627;28;20122;-75
2024/03/19 11:31:06;;;;;;;6.88;2.90;;;18.90;99.90;;;;;;5027167;28;20065;-76
2024/03/19 11:33:38;;;;;;;9.45;2.85;;;19.00;99.90;;;;;;5028638;28;20805;-75
2024/03/19 11:36:04;;;;;;;6.57;2.60;;;19.00;99.90;;;;;;5026935;28;20524;-76
2024/03/19 11:38:31;;;;;;;8.25;2.95;;;19.00;99.90;;;;;;5027339;28;20389;-75
2024/03/19 11:40:58;;;;;;;12.23;3.55;;;18.90;99.90;;;;;;5027408;28;20501;-76
2024/03/19 11:43:25;;;;;;;12.43;3.17;;;18.90;99.90;;;;;;5028632;28;20025;-76
2024/03/19 11:45:51;;;;;;;6.38;2.65;;;19.10;99.90;;;;;;5027880;28;20493;-75
2024/03/19 11:48:21;;;;;;;8.15;2.83;;;19.20;99.90;;;;;;5026431;28;20037;-76
2024/03/19 11:50:56;;;;;;;5.70;3.10;;;19.30;99.90;;;;;;5025770;28;20564;-76
2024/03/19 11:53:26;;;;;;;8.80;3.00;;;19.30;99.90;;;;;;5027931;28;20029;-76
2024/03/19 11:55:57;;;;;;;6.78;3.70;;;19.30;99.90;;;;;;5027812;28;20021;-76
2024/03/19 11:58:24;;;;;;;7.55;3.20;;;19.40;99.90;;;;;;5024571;28;20022;-76
2024/03/19 12:00:50;;;;;;;8.93;3.10;;;19.50;99.90;;;;;;5028251;28;20014;-75
2024/03/19 12:03:19;;;;;;;10.13;3.33;;;19.60;99.90;;;;;;5027840;28;20393;-76
2024/03/19 12:05:50;;;;;;;9.50;2.67;;;19.70;99.90;;;;;;5025822;28;20022;-76
2024/03/19 12:08:19;;;;;;;5.80;2.70;;;19.70;99.90;;;;;;5025179;28;20060;-76
2024/03/19 12:10:47;;;;;;;7.05;2.53;;;19.60;99.90;;;;;;5025786;28;20577;-76
2024/03/19 12:13:14;;;;;;;7.20;2.88;;;19.40;99.90;;;;;;5025841;28;20030;-76
2024/03/19 12:15:40;;;;;;;11.48;2.65;;;19.20;99.90;;;;;;5027519;28;20829;-76
2024/03/19 12:18:07;;;;;;;5.18;2.67;;;19.20;99.90;;;;;;5026689;28;20168;-76
2024/03/19 12:20:34;;;;;;;7.60;2.95;;;19.20;99.90;;;;;;5027545;28;20021;-76
2024/03/19 12:23:00;;;;;;;10.23;3.30;;;19.00;99.90;;;;;;5027212;28;20033;-76
2024/03/19 12:25:28;;;;;;;9.18;3.50;;;18.90;99.90;;;;;;5027306;28;20556;-76
2024/03/19 12:27:54;;;;;;;6.07;2.90;;;18.90;99.90;;;;;;5024316;28;20041;-76
2024/03/19 12:30:21;;;;;;;7.00;2.70;;;18.90;99.90;;;;;;5027209;28;20135;-76
2024/03/19 12:32:59;;;;;;;5.22;3.00;;;19.10;99.90;;;;;;5026459;28;20021;-76